Time;durP1;ratioP1;P1;durP2;ratioP2;P2;SDS_P1;SDS_P2;PMS_P1;PMS_P2;Temp;Humidity;BMP_temperature;BMP_pressure;BME280_temperature;BME280_humidity;BME280_pressure;Samples;Min_cycle;Max_cycle;Signal;HPM_P1;HPM_P2
2022/03/28 15:27:24;;;;;;;9.57;6.78;;;15.00;74.20;;;;;;2293182;62;30104;-73
2022/03/28 15:29:52;;;;;;;9.73;6.22;;;15.00;73.50;;;;;;2282545;62;30292;-73
2022/03/28 15:32:18;;;;;;;7.30;5.68;;;15.00;74.50;;;;;;2283120;62;30173;-73
2022/03/28 15:34:43;;;;;;;8.20;5.40;;;15.00;75.60;;;;;;2283393;62;31415;-73
2022/03/28 15:37:09;;;;;;;7.53;5.90;;;15.00;76.40;;;;;;2282831;62;30648;-79
2022/03/28 15:39:35;;;;;;;9.70;6.18;;;15.00;76.90;;;;;;2284298;62;30065;-84
2022/03/28 15:42:01;;;;;;;7.63;5.90;;;14.90;77.70;;;;;;2290937;62;30487;-77
2022/03/28 15:44:28;;;;;;;7.90;5.88;;;15.00;78.40;;;;;;2291136;62;30267;-76
2022/03/28 15:46:54;;;;;;;7.72;6.22;;;15.00;78.50;;;;;;2291288;62;30695;-78
2022/03/28 15:49:20;;;;;;;6.25;5.65;;;15.00;78.50;;;;;;2291330;62;30344;-77
2022/03/28 15:51:46;;;;;;;11.38;6.82;;;15.10;78.50;;;;;;2283344;62;30535;-78
2022/03/28 15:54:13;;;;;;;10.20;6.20;;;15.10;78.40;;;;;;2283780;62;32452;-80
2022/03/28 15:56:40;;;;;;;7.15;5.63;;;15.10;78.50;;;;;;2281734;62;31543;-79
2022/03/28 15:59:07;;;;;;;7.28;5.68;;;15.10;78.50;;;;;;2290899;62;30181;-80
2022/03/28 16:01:48;;;;;;;7.68;5.65;;;15.10;78.40;;;;;;2291329;62;30227;-79
2022/03/28 16:04:15;;;;;;;7.57;5.95;;;15.10;78.40;;;;;;2284596;62;30175;-77
2022/03/28 16:06:43;;;;;;;7.82;6.00;;;15.10;78.30;;;;;;2283641;62;31689;-78
2022/03/28 16:09:09;;;;;;;7.35;5.55;;;15.10;79.00;;;;;;2283603;62;30235;-79
2022/03/28 16:11:37;;;;;;;9.15;5.88;;;15.10;78.20;;;;;;2283030;62;30257;-79
2022/03/28 16:14:07;;;;;;;7.72;6.18;;;15.10;78.20;;;;;;2283717;62;30830;-78
2022/03/28 16:16:40;;;;;;;8.35;5.60;;;15.10;78.30;;;;;;2284080;62;31814;-78
2022/03/28 16:19:08;;;;;;;9.52;6.10;;;15.00;77.90;;;;;;2276880;62;30200;-76
2022/03/28 16:21:35;;;;;;;7.55;5.60;;;15.00;78.10;;;;;;2291230;62;30161;-78
2022/03/28 16:24:01;;;;;;;7.22;5.55;;;15.00;78.00;;;;;;2291154;62;31211;-85
2022/03/28 16:26:27;;;;;;;9.65;6.35;;;15.00;78.10;;;;;;2290703;62;30557;-85
2022/03/28 16:28:53;;;;;;;9.73;5.30;;;15.00;77.90;;;;;;2291183;62;30567;-83
2022/03/28 16:31:20;;;;;;;7.88;5.60;;;15.00;77.90;;;;;;2291107;62;30149;-83
2022/03/28 16:33:47;;;;;;;8.55;5.47;;;15.00;77.80;;;;;;2290811;62;31106;-83
2022/03/28 16:36:15;;;;;;;10.82;5.20;;;15.00;77.80;;;;;;2283720;62;30580;-83
2022/03/28 16:38:42;;;;;;;7.32;5.90;;;15.00;77.80;;;;;;2285716;62;30254;-85
2022/03/28 16:41:08;;;;;;;7.43;5.47;;;15.00;77.70;;;;;;2285308;62;30582;-84
2022/03/28 16:43:35;;;;;;;6.13;4.93;;;15.00;77.50;;;;;;2285100;62;30966;-84
2022/03/28 16:46:01;;;;;;;8.52;5.00;;;15.00;77.50;;;;;;2285346;62;30263;-83
2022/03/28 16:48:26;;;;;;;6.90;5.15;;;15.00;77.60;;;;;;2287246;62;30435;-84
2022/03/28 16:50:56;;;;;;;7.43;4.88;;;15.00;77.50;;;;;;2285905;62;30331;-85
2022/03/28 16:53:21;;;;;;;5.93;5.13;;;15.00;77.30;;;;;;2278318;62;30174;-83
2022/03/28 16:55:49;;;;;;;5.72;5.10;;;15.00;77.30;;;;;;2284943;62;30122;-83
2022/03/28 16:58:15;;;;;;;5.95;5.00;;;15.00;77.20;;;;;;2284784;62;30061;-83
2022/03/28 17:00:44;;;;;;;7.03;5.00;;;14.90;77.20;;;;;;2284892;62;30037;-82
2022/03/28 17:03:15;;;;;;;6.25;5.50;;;14.90;77.20;;;;;;2278024;62;30352;-74
2022/03/28 17:05:41;;;;;;;6.00;5.40;;;14.90;77.00;;;;;;2278285;62;30741;-74
2022/03/28 17:08:08;;;;;;;6.40;5.20;;;14.90;77.00;;;;;;2285114;62;30218;-74
2022/03/28 17:10:34;;;;;;;5.95;5.32;;;14.90;77.10;;;;;;2285084;62;30808;-75
2022/03/28 17:13:00;;;;;;;6.05;5.45;;;14.90;77.10;;;;;;2284716;62;31163;-75
2022/03/28 17:15:27;;;;;;;6.65;5.53;;;14.90;77.00;;;;;;2270933;62;30391;-74
2022/03/28 17:17:54;;;;;;;5.53;5.03;;;14.90;77.00;;;;;;2285300;62;30330;-74
2022/03/28 17:20:20;;;;;;;5.90;5.30;;;14.90;76.90;;;;;;2277995;62;30273;-74
2022/03/28 17:22:48;;;;;;;7.03;5.55;;;14.80;77.60;;;;;;2285072;62;30242;-74
2022/03/28 17:25:19;;;;;;;6.60;5.32;;;14.80;76.90;;;;;;2277599;62;30082;-74
2022/03/28 17:27:52;;;;;;;9.02;5.60;;;14.80;76.80;;;;;;2285357;62;30200;-73
2022/03/28 17:30:19;;;;;;;7.05;5.45;;;14.90;76.80;;;;;;2278139;62;30178;-74
2022/03/28 17:32:47;;;;;;;6.90;5.68;;;14.80;76.80;;;;;;2277863;62;30213;-73
2022/03/28 17:35:13;;;;;;;6.20;5.60;;;14.80;76.80;;;;;;2277735;62;31101;-74
2022/03/28 17:37:42;;;;;;;6.90;5.95;;;14.80;76.90;;;;;;2277417;62;30178;-73
2022/03/28 17:40:10;;;;;;;10.07;6.50;;;14.80;76.90;;;;;;2277786;62;30289;-75
2022/03/28 17:42:39;;;;;;;7.13;6.40;;;14.80;77.00;;;;;;2270744;62;31120;-74
2022/03/28 17:45:06;;;;;;;7.38;6.22;;;14.80;77.10;;;;;;2277418;62;31045;-74
2022/03/28 17:47:32;;;;;;;13.15;7.43;;;14.80;77.10;;;;;;2277475;62;30071;-74
2022/03/28 17:49:58;;;;;;;21.02;8.18;;;14.80;77.30;;;;;;2276952;62;30206;-74
2022/03/28 17:52:24;;;;;;;14.50;8.60;;;14.80;77.50;;;;;;2284873;62;30238;-74
2022/03/28 17:54:53;;;;;;;9.05;7.55;;;14.90;78.50;;;;;;2262547;62;30163;-73
2022/03/28 17:57:19;;;;;;;8.85;7.50;;;15.00;77.90;;;;;;2270566;62;33783;-75
2022/03/28 17:59:45;;;;;;;9.95;7.50;;;15.00;77.80;;;;;;2275204;62;30045;-73
2022/03/28 18:02:11;;;;;;;7.40;6.50;;;15.10;77.70;;;;;;2283494;62;34485;-74
2022/03/28 18:04:37;;;;;;;9.45;6.60;;;15.10;77.50;;;;;;2283315;62;30550;-75
2022/03/28 18:07:03;;;;;;;9.18;6.75;;;15.20;77.40;;;;;;2276122;62;30243;-74
2022/03/28 18:09:33;;;;;;;12.52;7.07;;;15.20;77.50;;;;;;2276261;62;30080;-75
2022/03/28 18:12:02;;;;;;;7.65;6.80;;;15.30;77.50;;;;;;2274757;62;61504;-72
2022/03/28 18:14:28;;;;;;;7.72;6.78;;;15.40;77.40;;;;;;2267975;62;30287;-73
2022/03/28 18:16:54;;;;;;;8.63;6.25;;;15.40;77.60;;;;;;2267993;62;31246;-71
2022/03/28 18:19:22;;;;;;;7.55;6.72;;;15.40;77.40;;;;;;2267878;62;30235;-71
2022/03/28 18:21:51;;;;;;;8.75;6.72;;;15.50;77.30;;;;;;2275504;62;32544;-72
2022/03/28 18:24:17;;;;;;;9.95;6.07;;;15.60;77.20;;;;;;2275500;62;30598;-72
2022/03/28 18:26:43;;;;;;;9.57;5.72;;;15.70;77.10;;;;;;2262339;62;30428;-72
2022/03/28 18:29:09;;;;;;;5.28;4.78;;;15.90;76.90;;;;;;2276037;62;30083;-72
2022/03/28 18:31:42;;;;;;;5.30;4.80;;;16.00;76.80;;;;;;2283246;62;30947;-71
2022/03/28 18:34:09;;;;;;;4.93;4.40;;;16.10;76.70;;;;;;2275917;62;31528;-71
2022/03/28 18:36:35;;;;;;;7.60;4.75;;;16.30;76.50;;;;;;2283537;62;30182;-70
2022/03/28 18:39:02;;;;;;;6.95;4.38;;;16.40;76.40;;;;;;2282923;62;30157;-72
2022/03/28 18:41:28;;;;;;;8.52;4.45;;;16.50;76.10;;;;;;2283391;62;30634;-72
2022/03/28 18:43:53;;;;;;;7.63;4.40;;;16.50;76.10;;;;;;2283332;62;30394;-73
2022/03/28 18:46:21;;;;;;;5.03;4.22;;;16.50;75.90;;;;;;2282962;62;30280;-72
2022/03/28 18:48:47;;;;;;;6.20;4.05;;;16.60;75.70;;;;;;2273946;62;30641;-72
2022/03/28 18:51:12;;;;;;;6.05;4.03;;;16.60;75.50;;;;;;2275742;62;30350;-72
2022/03/28 18:53:41;;;;;;;6.35;3.90;;;16.70;75.40;;;;;;2275685;62;30790;-72
2022/03/28 18:56:07;;;;;;;5.85;4.03;;;16.70;75.30;;;;;;2283452;62;30181;-72
2022/03/28 18:58:33;;;;;;;4.40;3.85;;;16.70;75.00;;;;;;2275223;62;32457;-72
2022/03/28 19:01:02;;;;;;;4.13;3.72;;;16.70;75.00;;;;;;2268790;62;31450;-72
2022/03/28 19:03:28;;;;;;;4.05;3.60;;;16.70;74.80;;;;;;2282946;62;31833;-72
2022/03/28 19:05:54;;;;;;;4.45;3.58;;;16.80;74.70;;;;;;2273625;62;30365;-74
2022/03/28 19:08:21;;;;;;;5.57;4.00;;;16.80;74.60;;;;;;2275626;62;30514;-73
2022/03/28 19:10:47;;;;;;;5.20;3.85;;;16.80;74.30;;;;;;2275958;62;31152;-73
2022/03/28 19:13:13;;;;;;;4.22;3.63;;;16.80;74.20;;;;;;2283389;62;30477;-76
2022/03/28 19:15:40;;;;;;;4.72;3.88;;;16.80;74.00;;;;;;2262300;62;30291;-79
2022/03/28 19:18:09;;;;;;;5.80;3.65;;;16.80;73.90;;;;;;2282332;62;30235;-80
2022/03/28 19:20:34;;;;;;;5.38;3.63;;;16.90;73.80;;;;;;2283612;62;30817;-77
2022/03/28 19:23:02;;;;;;;3.85;3.50;;;16.90;73.70;;;;;;2267858;62;30717;-76
2022/03/28 19:25:30;;;;;;;4.03;3.60;;;16.90;73.60;;;;;;2278893;62;30717;-73
2022/03/28 19:27:57;;;;;;;5.80;3.58;;;16.90;73.30;;;;;;2276037;62;34293;-73
2022/03/28 19:30:23;;;;;;;3.72;3.42;;;16.90;73.30;;;;;;2274957;62;30648;-72
2022/03/28 19:32:49;;;;;;;4.90;3.40;;;17.00;73.40;;;;;;2261710;62;30481;-71
2022/03/28 19:35:17;;;;;;;3.83;3.45;;;17.00;73.30;;;;;;2281662;62;30174;-72
2022/03/28 19:37:50;;;;;;;3.80;3.50;;;17.00;73.20;;;;;;2281611;62;30200;-72
2022/03/28 19:40:16;;;;;;;4.22;3.35;;;17.00;73.20;;;;;;2275127;62;31517;-75
2022/03/28 19:42:42;;;;;;;3.72;3.40;;;17.00;73.00;;;;;;2282081;62;30232;-72
2022/03/28 19:45:08;;;;;;;3.42;3.13;;;17.00;72.80;;;;;;2281893;62;31061;-72
2022/03/28 19:47:34;;;;;;;5.18;3.78;;;17.00;72.70;;;;;;2282136;62;30742;-72
2022/03/28 19:50:03;;;;;;;3.30;2.97;;;17.00;72.80;;;;;;2274896;62;30863;-72
2022/03/28 19:52:29;;;;;;;3.85;3.28;;;17.00;72.70;;;;;;2274028;62;30780;-73
2022/03/28 19:54:55;;;;;;;3.67;3.38;;;17.00;72.60;;;;;;2274955;62;30295;-72
2022/03/28 19:57:21;;;;;;;3.75;3.45;;;17.00;72.50;;;;;;2282257;62;30684;-73
2022/03/28 19:59:50;;;;;;;236.60;130.25;;;17.00;72.50;;;;;;2274838;62;30130;-86
2022/03/28 20:02:16;;;;;;;5.90;3.92;;;17.10;72.50;;;;;;2267202;62;30846;-75
2022/03/28 20:04:42;;;;;;;6.88;4.50;;;17.10;72.40;;;;;;2274169;62;30723;-75
2022/03/28 20:07:08;;;;;;;4.97;3.95;;;17.10;72.20;;;;;;2274678;62;30456;-76
2022/03/28 20:09:34;;;;;;;5.88;4.05;;;17.20;72.80;;;;;;2267320;62;31250;-75
2022/03/28 20:12:00;;;;;;;4.32;3.92;;;17.30;72.10;;;;;;2267199;62;30597;-75
2022/03/28 20:14:26;;;;;;;4.68;3.83;;;17.30;72.00;;;;;;2278955;62;30284;-75
2022/03/28 20:16:55;;;;;;;4.28;3.88;;;17.40;71.90;;;;;;2276714;62;30529;-75
2022/03/28 20:19:21;;;;;;;3.92;3.20;;;17.40;71.60;;;;;;2276586;62;30985;-75
2022/03/28 20:21:47;;;;;;;3.65;3.22;;;17.50;71.60;;;;;;2269953;62;31032;-76
2022/03/28 20:24:13;;;;;;;4.82;3.25;;;17.50;71.50;;;;;;2284081;62;30336;-77
2022/03/28 20:26:39;;;;;;;3.67;3.30;;;17.60;71.30;;;;;;2276213;62;30312;-76
2022/03/28 20:29:05;;;;;;;3.75;3.25;;;17.60;71.20;;;;;;2284194;62;30406;-74
2022/03/28 20:31:31;;;;;;;3.30;3.00;;;17.60;71.10;;;;;;2280217;62;31588;-77
2022/03/28 20:33:57;;;;;;;3.85;2.90;;;17.60;71.10;;;;;;2280140;62;30320;-75
2022/03/28 20:36:25;;;;;;;3.60;3.30;;;17.70;71.00;;;;;;2275839;62;32533;-74
2022/03/28 20:38:51;;;;;;;3.40;3.10;;;17.70;71.00;;;;;;2275378;62;30128;-75
2022/03/28 20:41:17;;;;;;;3.20;2.88;;;17.70;70.80;;;;;;2275780;62;31036;-75
2022/03/28 20:43:42;;;;;;;4.57;3.20;;;17.70;70.90;;;;;;2275503;62;30382;-80
2022/03/28 20:46:08;;;;;;;4.70;3.00;;;17.70;71.20;;;;;;2275552;62;29953;-79
2022/03/28 20:48:34;;;;;;;3.30;3.00;;;17.70;70.90;;;;;;2275267;62;30180;-78
2022/03/28 20:51:02;;;;;;;4.07;3.10;;;17.70;71.30;;;;;;2278430;62;31237;-79
2022/03/28 20:53:28;;;;;;;2.97;2.78;;;17.70;70.90;;;;;;2268552;62;31018;-80
2022/03/28 20:55:55;;;;;;;3.30;3.00;;;17.70;70.90;;;;;;2274460;62;30051;-80
2022/03/28 20:58:21;;;;;;;3.90;3.15;;;17.80;70.90;;;;;;2275430;62;30917;-80
2022/03/28 21:00:48;;;;;;;3.08;2.60;;;17.80;70.70;;;;;;2261792;62;33118;-79
2022/03/28 21:03:16;;;;;;;3.28;2.70;;;17.80;70.70;;;;;;2275944;62;30393;-80
2022/03/28 21:05:45;;;;;;;3.03;2.78;;;17.80;70.70;;;;;;2282723;62;30272;-78
2022/03/28 21:08:13;;;;;;;4.85;2.75;;;17.80;70.50;;;;;;2276166;62;30911;-79
2022/03/28 21:10:42;;;;;;;3.30;3.00;;;17.80;70.40;;;;;;2275553;62;30240;-80
2022/03/28 21:13:09;;;;;;;3.00;2.80;;;17.80;70.50;;;;;;2275030;62;30315;-80
2022/03/28 21:15:36;;;;;;;2.80;2.60;;;17.80;70.30;;;;;;2275244;62;30361;-79
2022/03/28 21:18:05;;;;;;;2.83;2.63;;;17.80;70.30;;;;;;2274454;62;32435;-80
2022/03/28 21:20:34;;;;;;;2.85;2.55;;;17.80;70.30;;;;;;2269556;62;30796;-79
2022/03/28 21:23:03;;;;;;;2.97;2.60;;;17.80;70.20;;;;;;2276091;62;30288;-79
2022/03/28 21:25:29;;;;;;;2.85;2.65;;;17.80;70.30;;;;;;2282280;62;30314;-78
2022/03/28 21:27:55;;;;;;;3.03;2.83;;;17.80;70.30;;;;;;2280170;62;30326;-79
2022/03/28 21:30:20;;;;;;;2.67;2.47;;;17.80;70.10;;;;;;2278445;62;30237;-78
2022/03/28 21:32:46;;;;;;;3.20;2.70;;;17.80;70.30;;;;;;2283652;62;30258;-80
2022/03/28 21:35:12;;;;;;;2.70;2.50;;;17.80;70.10;;;;;;2283464;62;30341;-77
2022/03/28 21:37:43;;;;;;;5.22;2.72;;;17.80;70.20;;;;;;2276313;62;31128;-80
2022/03/28 21:40:09;;;;;;;3.10;2.28;;;17.80;70.20;;;;;;2283485;62;30235;-80
2022/03/28 21:42:37;;;;;;;3.17;2.55;;;17.80;70.20;;;;;;2276036;62;30281;-80
2022/03/28 21:45:04;;;;;;;2.75;2.55;;;17.70;70.10;;;;;;2275939;62;30240;-79
2022/03/28 21:47:30;;;;;;;2.45;2.25;;;17.80;70.10;;;;;;2270022;62;30287;-81
2022/03/28 21:49:56;;;;;;;2.92;2.70;;;17.70;70.00;;;;;;2267908;62;30704;-81
2022/03/28 21:52:23;;;;;;;2.60;2.35;;;17.80;70.10;;;;;;2276403;62;30839;-83
2022/03/28 21:54:49;;;;;;;2.45;2.25;;;17.70;70.10;;;;;;2268446;62;30363;-79
2022/03/28 21:57:15;;;;;;;2.72;2.47;;;17.70;70.00;;;;;;2274851;62;30442;-78
2022/03/28 21:59:47;;;;;;;2.70;2.50;;;17.70;70.40;;;;;;2268562;62;30691;-80
2022/03/28 22:02:16;;;;;;;3.13;2.92;;;17.70;70.10;;;;;;2274969;62;30680;-78
2022/03/28 22:04:42;;;;;;;2.53;2.33;;;17.80;70.20;;;;;;2274704;62;30260;-78
2022/03/28 22:07:08;;;;;;;3.58;2.40;;;17.70;70.00;;;;;;2275524;62;31117;-79
2022/03/28 22:09:36;;;;;;;2.88;2.60;;;17.70;70.10;;;;;;2280356;62;30667;-81
2022/03/28 22:12:02;;;;;;;2.80;2.60;;;17.70;70.10;;;;;;2283487;62;30556;-80
2022/03/28 22:14:32;;;;;;;2.50;2.30;;;17.70;69.90;;;;;;2276484;62;30328;-78
2022/03/28 22:16:57;;;;;;;2.70;2.50;;;17.70;69.80;;;;;;2283461;62;30270;-78
2022/03/28 22:19:23;;;;;;;3.17;2.50;;;17.70;69.80;;;;;;2283367;62;30335;-80
2022/03/28 22:21:49;;;;;;;2.65;2.45;;;17.70;69.80;;;;;;2283716;62;30061;-80
2022/03/28 22:24:15;;;;;;;2.90;2.70;;;17.70;69.80;;;;;;2283461;62;30335;-81
2022/03/28 22:26:41;;;;;;;4.35;2.67;;;17.70;69.90;;;;;;2283478;62;31078;-79
